createdAt,value
2023-03-13T00:02:46.898Z,99454.38
2023-03-13T00:07:48.392Z,99434.78
2023-03-13T00:12:49.694Z,99430.72
2023-03-13T00:17:51.001Z,99439.13
2023-03-13T00:22:52.358Z,99418.69
2023-03-13T00:27:53.669Z,99412.69
2023-03-13T00:32:55.025Z,99424.13
2023-03-13T00:37:56.694Z,99413.50
2023-03-13T00:42:58.192Z,99410.84
2023-03-13T00:47:59.491Z,99403.00
2023-03-13T00:53:00.833Z,99400.06
2023-03-13T00:58:02.202Z,99378.94
2023-03-13T01:03:03.731Z,99365.22
2023-03-13T01:08:05.708Z,99359.91
2023-03-13T01:13:07.378Z,99354.72
2023-03-13T01:18:09.434Z,99345.91
2023-03-13T01:23:10.951Z,99339.50
2023-03-13T01:28:12.643Z,99326.19
2023-03-13T01:33:14.239Z,99335.53
2023-03-13T01:38:15.741Z,99316.78
2023-03-13T01:43:27.339Z,99315.94
2023-03-13T01:48:42.100Z,99299.84
2023-03-13T01:53:47.446Z,99288.50
2023-03-13T01:58:52.242Z,99273.78
2023-03-13T02:03:54.433Z,99260.19
2023-03-13T02:09:05.069Z,99264.13
2023-03-13T02:14:07.214Z,99257.13
2023-03-13T02:19:19.750Z,99255.28
2023-03-13T02:24:40.243Z,99258.50
2023-03-13T02:29:42.557Z,99241.00
2023-03-13T02:34:46.955Z,99235.84
2023-03-13T02:39:51.542Z,99217.34
2023-03-13T02:44:52.929Z,99209.66
2023-03-13T02:49:54.255Z,99197.78
2023-03-13T02:55:01.733Z,99196.50
2023-03-13T03:00:06.872Z,99187.91
2023-03-13T03:05:08.809Z,99176.41
2023-03-13T03:10:10.816Z,99163.88
2023-03-13T03:15:13.010Z,99147.09
2023-03-13T03:20:14.526Z,99134.19
2023-03-13T03:25:16.236Z,99130.97
2023-03-13T03:30:17.832Z,99142.34
2023-03-13T03:35:19.120Z,99148.09
2023-03-13T03:40:21.309Z,99151.28
2023-03-13T03:45:23.227Z,99151.59
2023-03-13T03:50:24.631Z,99143.41
2023-03-13T03:55:26.106Z,99133.75
2023-03-13T04:00:27.792Z,99118.09
2023-03-13T04:05:29.457Z,99116.38
2023-03-13T04:10:30.918Z,99120.06
2023-03-13T04:15:32.276Z,99118.00
2023-03-13T04:20:34.466Z,99119.28
2023-03-13T04:25:36.050Z,99098.91
2023-03-13T04:30:37.503Z,99088.41
2023-03-13T04:35:38.927Z,99096.94
2023-03-13T04:40:40.366Z,99093.00
2023-03-13T04:45:41.714Z,99077.03
2023-03-13T04:50:43.098Z,99077.56
2023-03-13T04:55:45.120Z,99067.00
2023-03-13T05:00:46.561Z,99055.00
2023-03-13T05:05:48.154Z,99059.19
2023-03-13T05:10:49.540Z,99056.31
2023-03-13T05:15:50.892Z,99038.16
2023-03-13T05:20:52.210Z,99035.75
2023-03-13T05:25:53.676Z,99013.19
2023-03-13T05:30:55.358Z,99013.19
2023-03-13T05:35:56.961Z,98990.09
2023-03-13T05:40:58.408Z,98980.41
2023-03-13T05:45:59.796Z,98982.03
2023-03-13T05:51:01.233Z,99024.84
2023-03-13T05:56:02.762Z,99021.88
2023-03-13T06:01:12.183Z,99011.91
2023-03-13T06:06:13.538Z,98992.84
2023-03-13T06:11:14.969Z,98997.34
2023-03-13T06:16:16.300Z,98972.41
2023-03-13T06:21:17.652Z,98977.81
2023-03-13T06:26:18.996Z,98973.06
2023-03-13T06:31:20.608Z,98984.22
2023-03-13T06:36:26.175Z,98995.06
2023-03-13T06:41:27.823Z,99004.25
2023-03-13T06:46:29.221Z,98999.63
2023-03-13T06:51:30.656Z,99013.97
2023-03-13T06:56:32.297Z,99008.19
2023-03-13T07:01:34.209Z,98980.44
2023-03-13T07:06:35.617Z,98970.22
2023-03-13T07:11:37.944Z,98983.06
2023-03-13T07:16:39.301Z,98987.91
2023-03-13T07:21:41.321Z,98969.25
2023-03-13T07:26:57.728Z,98975.31
2023-03-13T07:32:03.448Z,98979.19
2023-03-13T07:37:04.908Z,98977.41
2023-03-13T07:42:06.488Z,98972.81
2023-03-13T07:47:07.961Z,98972.00
2023-03-13T07:52:10.393Z,98955.53
2023-03-13T07:57:11.857Z,98964.06
2023-03-13T08:02:16.849Z,98965.41
2023-03-13T08:07:18.405Z,98958.91
2023-03-13T08:12:19.906Z,98962.94
2023-03-13T08:17:21.252Z,98965.97
2023-03-13T08:22:22.701Z,98958.47
2023-03-13T08:27:23.994Z,98957.50
2023-03-13T08:32:25.347Z,98946.50
2023-03-13T08:37:26.924Z,98949.91
2023-03-13T08:42:28.262Z,98947.09
2023-03-13T08:47:29.632Z,98944.91
2023-03-13T08:52:30.996Z,98942.72
2023-03-13T08:57:32.401Z,98947.38
2023-03-13T09:02:33.804Z,98950.06
2023-03-13T09:07:35.242Z,98969.22
2023-03-13T09:12:36.703Z,98944.88
2023-03-13T09:17:38.630Z,98948.00
2023-03-13T09:22:39.948Z,98923.63
2023-03-13T09:27:41.376Z,98943.44
2023-03-13T09:32:42.803Z,98940.94
2023-03-13T09:37:44.172Z,98930.22
2023-03-13T09:42:51.203Z,98920.84
2023-03-13T09:48:02.568Z,98911.84
2023-03-13T09:53:13.532Z,98888.78
2023-03-13T09:58:21.914Z,98898.09
2023-03-13T10:03:31.526Z,98918.78
2023-03-13T10:08:35.180Z,98919.75
2023-03-13T10:13:54.532Z,98922.25
2023-03-13T10:18:59.518Z,98917.50
2023-03-13T10:24:22.607Z,98905.56
2023-03-13T10:29:29.541Z,98915.38
2023-03-13T10:34:45.448Z,98902.75
2023-03-13T10:39:46.845Z,98901.38
2023-03-13T10:44:48.233Z,98904.94
2023-03-13T10:49:52.175Z,98894.53
2023-03-13T10:55:00.844Z,98893.75
2023-03-13T11:00:28.078Z,98903.50
2023-03-13T11:05:43.491Z,98878.53
2023-03-13T11:10:54.599Z,98886.19
2023-03-13T11:16:00.841Z,98872.47
2023-03-13T11:21:17.407Z,98870.78
2023-03-13T11:26:34.873Z,98870.16
2023-03-13T11:31:41.132Z,98860.34
2023-03-13T11:37:07.322Z,98844.66
2023-03-13T11:42:36.420Z,98849.00
2023-03-13T11:47:57.239Z,98850.41
2023-03-13T11:53:16.485Z,98831.13
2023-03-13T11:58:26.313Z,98813.59
2023-03-13T12:03:40.735Z,98806.66
2023-03-13T12:08:55.776Z,98783.88
2023-03-13T12:14:21.497Z,98778.16
2023-03-13T12:19:58.588Z,98762.72
2023-03-13T12:25:21.244Z,98742.88
2023-03-13T12:30:31.175Z,98733.53
2023-03-13T12:35:35.826Z,98737.53
2023-03-13T12:41:02.494Z,98731.00
2023-03-13T12:46:22.740Z,98714.44
2023-03-13T12:51:36.388Z,98716.06
2023-03-13T12:56:43.884Z,98706.06
2023-03-13T13:01:52.669Z,98695.72
2023-03-13T13:07:05.987Z,98683.00
2023-03-13T13:12:16.488Z,98679.34
2023-03-13T13:17:29.995Z,98666.47
2023-03-13T13:22:36.465Z,98638.00
2023-03-13T13:27:37.950Z,98635.66
2023-03-13T13:32:42.815Z,98625.38
2023-03-13T13:37:44.584Z,98594.81
2023-03-13T13:42:53.592Z,98575.66
2023-03-13T13:48:36.281Z,98551.25
2023-03-13T13:53:54.713Z,98533.84
2023-03-13T13:58:57.390Z,98505.59
2023-03-13T14:04:15.618Z,98491.81
2023-03-13T14:09:32.860Z,98455.94
2023-03-13T14:14:34.291Z,98464.88
2023-03-13T14:19:41.833Z,98456.19
2023-03-13T14:24:56.898Z,98433.13
2023-03-13T14:30:06.870Z,98428.50
2023-03-13T14:35:10.628Z,98414.13
2023-03-13T14:40:18.004Z,98398.44
2023-03-13T14:45:24.638Z,98373.72
2023-03-13T14:50:26.052Z,98349.13
2023-03-13T14:55:31.182Z,98335.75
2023-03-13T15:00:41.090Z,98326.88
2023-03-13T15:05:44.673Z,98304.25
2023-03-13T15:10:46.666Z,98303.88
2023-03-13T15:15:48.706Z,98325.03
2023-03-13T15:20:57.501Z,98406.56
2023-03-13T15:25:58.892Z,98376.75
2023-03-13T15:31:00.493Z,98374.31
2023-03-13T15:36:01.909Z,98421.56
2023-03-13T15:41:04.480Z,98377.72
2023-03-13T15:46:10.823Z,98358.59
2023-03-13T15:51:15.165Z,98335.47
2023-03-13T15:56:17.743Z,98312.81
2023-03-13T16:01:19.496Z,98316.41
2023-03-13T16:06:30.728Z,98347.16
2023-03-13T16:11:33.063Z,98349.94
2023-03-13T16:16:37.671Z,98344.75
2023-03-13T16:21:42.968Z,98330.34
2023-03-13T16:26:44.269Z,98348.44
2023-03-13T16:31:45.894Z,98290.94
2023-03-13T16:36:47.340Z,98309.56
2023-03-13T16:41:48.888Z,98308.88
2023-03-13T16:47:04.391Z,98313.75
2023-03-13T16:52:06.513Z,98333.97
2023-03-13T16:57:17.574Z,98338.94
2023-03-13T17:02:20.522Z,98347.09
2023-03-13T17:07:25.021Z,98329.41
2023-03-13T17:12:26.449Z,98335.69
2023-03-13T17:17:28.157Z,98332.06
2023-03-13T17:22:29.488Z,98316.78
2023-03-13T17:27:31.530Z,98311.44
2023-03-13T17:32:32.872Z,98324.44
2023-03-13T17:37:36.194Z,98291.47
2023-03-13T17:42:37.653Z,98266.13
2023-03-13T17:47:39.573Z,98259.78
2023-03-13T17:52:40.953Z,98259.03
2023-03-13T17:57:43.836Z,98254.72
2023-03-13T18:02:45.289Z,98291.22
2023-03-13T18:07:47.355Z,98298.19
2023-03-13T18:12:49.038Z,98286.63
2023-03-13T18:17:51.843Z,98270.06
2023-03-13T18:22:54.007Z,98280.38
2023-03-13T18:27:55.582Z,98270.69
2023-03-13T18:32:57.025Z,98261.13
2023-03-13T18:37:58.479Z,98249.06
2023-03-13T18:43:00.209Z,98277.16
2023-03-13T18:48:01.488Z,98269.16
2023-03-13T18:53:05.452Z,98258.47
2023-03-13T18:58:10.482Z,98252.94
2023-03-13T19:03:11.943Z,98265.56
2023-03-13T19:08:13.292Z,98287.94
2023-03-13T19:13:14.595Z,98278.53
2023-03-13T19:18:16.032Z,98252.22
2023-03-13T19:23:17.394Z,98265.75
2023-03-13T19:28:20.091Z,98297.78
2023-03-13T19:33:21.463Z,98282.50
2023-03-13T19:38:22.784Z,98214.69
2023-03-13T19:43:24.180Z,98166.25
2023-03-13T19:48:25.585Z,98199.13
2023-03-13T19:53:29.072Z,98192.78
2023-03-13T19:58:30.470Z,98158.38
2023-03-13T20:03:31.832Z,98166.19
2023-03-13T20:08:33.512Z,98137.88
2023-03-13T20:13:35.114Z,98118.66
2023-03-13T20:18:36.476Z,98119.13
2023-03-13T20:23:41.822Z,98124.50
2023-03-13T20:28:46.130Z,98117.31
2023-03-13T20:33:47.649Z,98105.91
2023-03-13T20:38:49.830Z,98121.38
2023-03-13T20:43:52.257Z,98135.41
2023-03-13T20:48:53.703Z,98119.78
2023-03-13T20:53:55.257Z,98119.25
2023-03-13T20:58:56.614Z,98103.97
2023-03-13T21:03:58.062Z,98109.69
2023-03-13T21:08:59.536Z,98120.72
2023-03-13T21:14:00.997Z,98127.97
2023-03-13T21:19:02.476Z,98151.50
2023-03-13T21:24:04.222Z,98156.66
2023-03-13T21:29:06.153Z,98152.97
2023-03-13T21:34:08.648Z,98130.25
2023-03-13T21:39:10.054Z,98163.63
2023-03-13T21:44:12.708Z,98164.25
2023-03-13T21:49:14.457Z,98165.38
2023-03-13T21:54:15.805Z,98193.75
2023-03-13T21:59:18.203Z,98202.00
2023-03-13T22:04:19.556Z,98205.22
2023-03-13T22:09:20.980Z,98199.28
2023-03-13T22:14:22.632Z,98185.94
2023-03-13T22:19:24.031Z,98171.47
2023-03-13T22:24:25.738Z,98165.88
2023-03-13T22:29:30.689Z,98161.06
2023-03-13T22:34:32.400Z,98170.72
2023-03-13T22:39:33.705Z,98196.19
2023-03-13T22:44:35.273Z,98195.56
2023-03-13T22:49:36.805Z,98182.94
2023-03-13T22:54:38.352Z,98179.66
2023-03-13T22:59:39.821Z,98187.75
2023-03-13T23:04:41.591Z,98165.47
2023-03-13T23:09:43.708Z,98167.94
2023-03-13T23:14:45.186Z,98139.28
2023-03-13T23:19:46.654Z,98150.75
2023-03-13T23:24:48.478Z,98151.25
2023-03-13T23:29:51.662Z,98147.53
2023-03-13T23:34:53.083Z,98165.31
2023-03-13T23:39:54.453Z,98185.31
2023-03-13T23:44:55.801Z,98200.50
2023-03-13T23:49:57.212Z,98211.84
2023-03-13T23:54:58.587Z,98217.66
